Terminal Aerodrome Forecast
Issued by NWS Pueblo, CO

Home | Current Version | Previous Version | Text Only | Print | Product List | Glossary On
Versions: 1 2 3 4 5 6 7 8 9 10 11 12 13 14 15 16 17 18 19 20 21 22 23 24 25 26
960
FTUS45 KPUB 111129
TAFPUB
TAF
KPUB 111129Z 1112/1212 VRB05KT P6SM FEW250
     FM111600 28008KT P6SM FEW150 SCT250
     FM112000 09007KT P6SM FEW140 SCT250
     FM120200 02007KT P6SM SCT120 SCT200
     FM120800 30005KT P6SM BKN200=

USA.gov is the U.S. government's official web portal to all federal, state and local government web resources and services.